Time;durP1;ratioP1;P1;durP2;ratioP2;P2;SDS_P1;SDS_P2;PMS_P1;PMS_P2;Temp;Humidity;BMP_temperature;BMP_pressure;BME280_temperature;BME280_humidity;BME280_pressure;Samples;Min_cycle;Max_cycle;Signal;HPM_P1;HPM_P2
2022/01/18 00:01:38;;;;;;;19.45;7.72;;;6.50;99.90;;;6.76;83.96;103728.44;5071314;28;20047;-63
2022/01/18 00:04:07;;;;;;;16.50;7.88;;;6.60;99.90;;;6.77;83.30;103735.53;5071225;28;20078;-63
2022/01/18 00:06:38;;;;;;;10.95;5.90;;;6.60;99.90;;;6.38;80.27;103740.31;5071596;28;20032;-63
2022/01/18 00:09:07;;;;;;;9.77;6.97;;;6.30;99.90;;;6.13;80.08;103721.28;5071266;28;20555;-62
2022/01/18 00:11:43;;;;;;;10.47;7.73;;;6.20;99.90;;;6.28;79.73;103753.72;5071226;28;20045;-61
2022/01/18 00:14:25;;;;;;;11.05;6.95;;;6.10;99.90;;;6.30;80.12;103751.19;5071701;28;20091;-61
2022/01/18 00:17:16;;;;;;;12.95;7.55;;;6.10;99.90;;;6.31;80.87;103751.25;5071194;28;20494;-61
2022/01/18 00:19:53;;;;;;;10.60;6.63;;;6.10;99.90;;;6.32;81.59;103713.66;5071420;28;20083;-61
2022/01/18 00:22:23;;;;;;;14.00;7.13;;;6.30;99.90;;;6.57;82.13;103746.63;5071482;28;20402;-60
2022/01/18 00:24:52;;;;;;;8.85;6.80;;;6.30;99.90;;;6.53;81.90;103761.31;5069912;28;20052;-60
2022/01/18 00:27:28;;;;;;;11.70;6.95;;;6.40;99.90;;;6.51;80.65;103754.13;5071358;28;20040;-61
2022/01/18 00:30:08;;;;;;;11.30;7.38;;;6.30;99.90;;;6.50;80.61;103754.97;5071346;28;20526;-63
2022/01/18 00:32:51;;;;;;;15.88;6.90;;;6.30;99.90;;;6.59;82.04;103753.78;5070017;28;20059;-59
2022/01/18 00:35:19;;;;;;;19.80;7.82;;;6.30;99.90;;;6.69;81.90;103753.50;5069959;28;20102;-60
2022/01/18 00:37:53;;;;;;;17.95;8.82;;;6.40;99.90;;;6.76;83.39;103750.41;5071548;28;20037;-60
2022/01/18 00:40:22;;;;;;;22.88;8.52;;;6.50;99.90;;;7.01;84.56;103765.84;5071369;28;20102;-57
2022/01/18 00:42:51;;;;;;;19.05;8.80;;;6.70;99.90;;;6.93;84.54;103738.22;5070057;28;20067;-59
2022/01/18 00:45:19;;;;;;;17.15;8.82;;;6.80;99.90;;;6.91;84.82;103730.22;5071515;28;20143;-58
2022/01/18 00:47:49;;;;;;;19.83;9.55;;;6.80;99.90;;;7.12;85.23;103756.84;5071162;28;20552;-59
2022/01/18 00:50:17;;;;;;;25.73;10.50;;;6.90;99.90;;;6.63;83.95;103652.28;5071690;28;20105;-59
2022/01/18 00:52:50;;;;;;;25.33;8.48;;;6.90;99.90;;;7.14;83.51;103749.94;5071101;28;20123;-59
2022/01/18 00:55:19;;;;;;;23.60;8.25;;;6.90;99.90;;;7.14;82.89;103750.81;5071112;28;20052;-59
2022/01/18 00:57:47;;;;;;;25.50;8.65;;;6.90;99.90;;;7.20;82.47;103753.81;5073507;28;20064;-59
2022/01/18 01:00:16;;;;;;;19.92;8.65;;;7.00;99.90;;;7.20;82.38;103753.81;5074565;28;20551;-59
2022/01/18 01:02:44;;;;;;;18.05;8.27;;;7.00;99.90;;;7.21;82.74;103754.72;5074277;28;20119;-59
2022/01/18 01:05:14;;;;;;;21.55;7.72;;;7.00;99.90;;;7.22;83.70;103748.59;5074080;28;20123;-59
2022/01/18 01:07:43;;;;;;;20.80;8.33;;;7.00;99.90;;;7.29;83.91;103750.78;5074259;28;20064;-59
2022/01/18 01:10:31;;;;;;;16.33;8.18;;;7.10;99.90;;;7.32;83.67;103756.19;5074423;28;20143;-59
2022/01/18 01:12:59;;;;;;;20.92;9.05;;;7.10;99.90;;;7.17;82.48;103758.00;5074412;28;20061;-59
2022/01/18 01:15:32;;;;;;;17.40;8.47;;;7.00;99.90;;;6.86;81.47;103759.72;5072898;28;20052;-59
2022/01/18 01:18:14;;;;;;;15.35;8.38;;;6.80;99.90;;;6.69;80.53;103763.13;5074309;28;20310;-59
2022/01/18 01:32:51;;;;;;;13.93;8.65;;;6.40;99.90;;;6.44;79.33;103765.13;5073537;28;20466;-59
2022/01/18 01:35:34;;;;;;;7.77;6.60;;;6.30;99.90;;;6.34;79.23;103750.53;5073765;28;20123;-59
2022/01/18 01:43:49;;;;;;;10.30;7.97;;;5.90;99.90;;;6.01;79.58;103745.91;5072162;28;20098;-59
2022/01/18 01:46:19;;;;;;;13.23;8.10;;;5.80;99.90;;;5.41;79.08;103643.28;5073445;28;20041;-59
2022/01/18 01:48:52;;;;;;;11.97;7.77;;;5.70;99.90;;;5.98;78.87;103738.72;5073288;28;20098;-59
2022/01/18 01:51:29;;;;;;;14.23;7.70;;;5.70;99.90;;;6.13;81.27;103730.88;5073586;28;20427;-59
2022/01/18 01:54:01;;;;;;;17.63;8.47;;;5.90;99.90;;;6.37;82.12;103745.44;5072113;28;20415;-59
2022/01/18 01:56:30;;;;;;;11.48;7.45;;;6.10;99.90;;;6.43;81.45;103743.19;5073230;28;20075;-59
2022/01/18 01:59:00;;;;;;;9.97;7.23;;;6.20;99.90;;;6.29;80.43;103742.38;5073467;28;20063;-59
2022/01/18 02:01:44;;;;;;;13.57;7.18;;;6.10;99.90;;;6.20;79.07;103743.56;5073213;28;20045;-59
2022/01/18 02:04:14;;;;;;;14.63;7.23;;;6.10;99.90;;;6.09;78.50;103744.66;5073586;28;20098;-59
2022/01/18 02:06:43;;;;;;;16.90;7.07;;;5.90;99.90;;;5.76;77.61;103753.06;5073065;28;20486;-59
2022/01/18 02:09:13;;;;;;;21.30;6.67;;;5.60;99.90;;;5.42;77.62;103739.56;5071904;28;20047;-59
2022/01/18 02:11:41;;;;;;;7.03;6.25;;;5.30;99.90;;;5.14;77.98;103746.53;5071991;28;20113;-59
2022/01/18 02:14:15;;;;;;;9.17;6.83;;;5.10;99.90;;;5.21;79.09;103751.34;5073480;28;20111;-59
2022/01/18 02:22:17;;;;;;;7.23;6.13;;;5.10;99.90;;;5.19;80.32;103737.22;5073037;28;20122;-59
2022/01/18 02:24:46;;;;;;;7.70;5.78;;;5.00;99.90;;;5.24;80.42;103738.44;5072590;28;20040;-59
2022/01/18 02:27:15;;;;;;;16.33;6.07;;;5.00;99.90;;;5.32;81.19;103742.47;5072856;28;20064;-59
2022/01/18 02:29:44;;;;;;;6.50;5.57;;;5.10;99.90;;;5.33;81.79;103739.00;5073245;28;20052;-59
2022/01/18 02:32:12;;;;;;;7.40;5.67;;;5.20;99.90;;;5.42;81.89;103743.09;5073039;28;20463;-59
2022/01/18 02:34:41;;;;;;;5.90;5.33;;;5.20;99.90;;;5.36;82.21;103740.09;5072659;28;20103;-59
2022/01/18 02:37:11;;;;;;;6.63;5.50;;;5.20;99.90;;;5.32;82.13;103738.09;5072869;28;20087;-59
2022/01/18 02:39:42;;;;;;;11.07;5.85;;;5.10;99.90;;;5.27;81.70;103738.63;5072440;28;20052;-59
2022/01/18 02:42:15;;;;;;;6.17;5.57;;;5.10;99.90;;;5.31;81.65;103738.91;5072427;28;20075;-59
2022/01/18 02:44:43;;;;;;;6.17;5.57;;;5.10;99.90;;;5.26;82.14;103737.72;5072255;28;20477;-59
2022/01/18 02:47:12;;;;;;;7.27;6.53;;;5.10;99.90;;;5.22;82.22;103740.06;5072138;28;20494;-59
2022/01/18 02:49:41;;;;;;;6.40;5.80;;;5.00;99.90;;;5.22;82.24;103732.19;5072565;28;20056;-59
2022/01/18 02:52:09;;;;;;;5.80;5.33;;;5.00;99.90;;;5.25;81.85;103741.16;5071176;28;20044;-58
2022/01/18 02:54:37;;;;;;;6.70;6.00;;;5.00;99.90;;;5.19;81.84;103732.88;5072161;28;20455;-59
2022/01/18 02:57:12;;;;;;;6.63;6.03;;;5.00;99.90;;;5.27;82.23;103733.38;5070893;28;20056;-59
2022/01/18 02:59:47;;;;;;;7.10;5.93;;;5.10;99.90;;;5.33;82.69;103732.03;5072594;28;20118;-59
2022/01/18 03:05:09;;;;;;;6.27;5.33;;;5.20;99.90;;;5.52;84.49;103731.47;5071781;28;20144;-59
2022/01/18 03:07:38;;;;;;;6.38;5.70;;;5.30;99.90;;;5.71;84.68;103738.78;5071892;28;20498;-59
2022/01/18 03:10:10;;;;;;;10.60;6.50;;;5.40;99.90;;;5.50;83.84;103726.13;5072102;28;20611;-59
2022/01/18 03:12:40;;;;;;;9.00;5.80;;;5.50;99.90;;;5.52;82.53;103739.34;5070421;28;20135;-59
2022/01/18 03:15:09;;;;;;;8.07;5.82;;;5.30;99.90;;;5.48;82.26;103732.06;5071789;28;20437;-59
2022/01/18 03:17:38;;;;;;;14.47;6.43;;;5.30;99.90;;;5.46;82.60;103741.56;5071728;28;20106;-59
2022/01/18 03:20:11;;;;;;;7.53;6.73;;;5.30;99.90;;;5.46;82.74;103731.06;5071901;28;20081;-59
2022/01/18 03:22:39;;;;;;;11.20;5.70;;;5.30;99.90;;;5.55;83.73;103738.63;5071716;28;20048;-59
2022/01/18 03:25:25;;;;;;;6.93;6.10;;;5.30;99.90;;;5.58;84.09;103742.34;5072013;28;20078;-59
2022/01/18 03:28:07;;;;;;;10.80;6.23;;;5.40;99.90;;;5.61;84.87;103741.63;5071751;28;20048;-59
2022/01/18 03:30:38;;;;;;;14.90;5.27;;;5.40;99.90;;;5.50;84.18;103740.97;5071930;28;20044;-59
2022/01/18 03:33:10;;;;;;;9.20;5.77;;;5.40;99.90;;;5.12;82.97;103737.66;5071872;28;20053;-59
2022/01/18 03:35:38;;;;;;;8.53;6.20;;;5.00;99.90;;;4.84;82.73;103739.34;5071617;28;20052;-59
2022/01/18 03:38:07;;;;;;;5.90;5.40;;;4.70;99.90;;;4.76;83.48;103737.91;5071801;28;20059;-59
2022/01/18 03:40:36;;;;;;;6.20;5.70;;;4.60;99.90;;;4.81;83.77;103729.53;5071581;28;20110;-59
2022/01/18 03:43:11;;;;;;;5.27;4.97;;;4.60;99.90;;;4.93;84.50;103740.84;5072080;28;20072;-59
2022/01/18 03:45:44;;;;;;;5.67;5.27;;;4.70;99.90;;;4.99;83.89;103741.22;5071910;28;20388;-59
2022/01/18 03:48:23;;;;;;;5.73;5.43;;;4.80;99.90;;;5.03;84.40;103752.81;5071953;28;20068;-59
2022/01/18 03:50:52;;;;;;;5.20;4.80;;;4.90;99.90;;;5.06;84.31;103745.13;5072032;28;20103;-59
2022/01/18 03:53:21;;;;;;;5.10;4.70;;;4.90;99.90;;;5.12;83.94;103737.66;5071917;28;20139;-59
2022/01/18 03:55:52;;;;;;;7.50;5.30;;;4.90;99.90;;;5.19;84.17;103739.84;5071873;28;20052;-58
2022/01/18 03:58:22;;;;;;;4.93;4.57;;;5.00;99.90;;;4.95;84.75;103680.59;5071414;28;20460;-59
2022/01/18 04:00:51;;;;;;;6.05;5.55;;;5.10;99.90;;;5.35;84.92;103742.63;5071513;28;20135;-59
2022/01/18 04:03:20;;;;;;;5.00;4.70;;;5.10;99.90;;;5.34;84.45;103746.97;5071243;28;20059;-59
2022/01/18 04:05:52;;;;;;;5.30;4.90;;;5.10;99.90;;;5.34;84.05;103741.72;5071154;28;20568;-59
2022/01/18 04:08:20;;;;;;;5.00;4.60;;;5.10;99.90;;;5.38;84.23;103748.09;5071260;28;20051;-59
2022/01/18 04:10:49;;;;;;;5.97;5.53;;;5.20;99.90;;;5.23;83.96;103715.63;5071126;28;20428;-59
2022/01/18 04:13:18;;;;;;;5.17;4.67;;;5.20;99.90;;;5.43;84.00;103744.94;5071256;28;20056;-59
2022/01/18 04:15:48;;;;;;;5.93;5.17;;;5.20;99.90;;;5.42;84.06;103750.06;5071145;28;20175;-59
2022/01/18 04:18:24;;;;;;;7.45;5.45;;;5.30;99.90;;;5.38;84.22;103756.84;5071388;28;20123;-59
2022/01/18 04:29:11;;;;;;;6.10;5.60;;;5.20;99.90;;;5.37;83.26;103776.03;5071188;28;20121;-59
2022/01/18 04:31:41;;;;;;;5.60;5.10;;;5.20;99.90;;;5.30;83.33;103776.44;5071969;28;20041;-59
2022/01/18 04:34:09;;;;;;;6.80;4.78;;;5.10;99.90;;;5.35;83.33;103767.16;5074998;28;20094;-59
2022/01/18 04:36:38;;;;;;;6.03;5.00;;;5.10;99.90;;;5.29;83.06;103774.66;5074629;28;20131;-59
2022/01/18 04:39:06;;;;;;;6.83;5.00;;;5.10;99.90;;;5.34;83.16;103772.34;5074580;28;20041;-59
2022/01/18 04:41:35;;;;;;;6.30;5.37;;;5.10;99.90;;;5.29;83.34;103769.41;5074561;28;20154;-59
2022/01/18 04:48:26;;;;;;;6.00;5.50;;;5.10;99.90;;;5.34;83.66;103770.59;5074960;28;20498;-59
2022/01/18 04:49:54;;;;;;;6.63;4.93;;;5.20;99.90;;;5.37;84.67;103770.81;5074650;28;20072;-59
2022/01/18 04:52:22;;;;;;;5.70;5.10;;;5.20;99.90;;;5.34;84.29;103767.97;5075108;28;20122;-59
2022/01/18 04:54:58;;;;;;;5.37;4.97;;;5.20;99.90;;;5.33;84.43;103763.53;5074397;28;20084;-59
2022/01/18 05:00:15;;;;;;;5.47;4.97;;;5.10;99.90;;;5.36;83.68;103760.22;5074607;28;20044;-59
2022/01/18 05:02:47;;;;;;;5.13;4.73;;;5.20;99.90;;;5.35;83.96;103766.25;5074267;28;20131;-59
2022/01/18 05:05:23;;;;;;;5.43;4.93;;;5.20;99.90;;;5.26;83.80;103752.56;5074436;28;20041;-59
2022/01/18 05:07:52;;;;;;;4.90;4.50;;;5.10;99.90;;;5.38;83.70;103769.09;5074263;28;20479;-59
2022/01/18 05:10:23;;;;;;;5.28;4.88;;;5.20;99.90;;;5.41;83.71;103758.78;5074799;28;20124;-59
2022/01/18 05:12:54;;;;;;;5.93;5.40;;;5.20;99.90;;;5.44;83.25;103761.56;5074313;28;20430;-59
2022/01/18 05:15:40;;;;;;;6.30;5.70;;;5.20;99.90;;;5.44;83.63;103751.06;5074376;28;20041;-58
2022/01/18 05:21:09;;;;;;;5.63;5.13;;;5.20;99.90;;;5.23;82.40;103763.75;5073922;28;20131;-58
2022/01/18 05:23:38;;;;;;;6.37;5.77;;;5.10;99.90;;;5.32;82.98;103763.44;5074415;28;20342;-58
2022/01/18 05:26:06;;;;;;;6.60;6.00;;;5.10;99.90;;;5.33;83.27;103762.63;5073878;28;20482;-59
2022/01/18 05:28:34;;;;;;;5.67;5.07;;;5.20;99.90;;;5.32;83.32;103760.81;5074176;28;20176;-58
2022/01/18 05:31:03;;;;;;;7.10;5.93;;;5.10;99.90;;;5.42;83.57;103763.19;5073770;28;20110;-58
2022/01/18 05:33:33;;;;;;;8.40;6.03;;;5.20;99.90;;;5.40;83.88;103760.47;5073881;28;20052;-58
2022/01/18 05:36:02;;;;;;;5.40;4.95;;;5.20;99.90;;;5.28;83.59;103762.31;5074208;28;20140;-59
2022/01/18 05:38:32;;;;;;;5.37;5.00;;;5.10;99.90;;;5.07;82.31;103754.84;5073863;28;20152;-58
2022/01/18 05:41:00;;;;;;;5.95;5.55;;;4.90;99.90;;;4.75;82.72;103751.81;5073601;28;20029;-59
2022/01/18 05:43:29;;;;;;;6.30;5.73;;;4.60;99.90;;;4.68;84.07;103739.13;5073739;28;20153;-58
2022/01/18 05:45:58;;;;;;;6.00;5.50;;;4.60;99.90;;;4.82;83.92;103756.69;5073936;28;20475;-59
2022/01/18 05:48:26;;;;;;;6.40;5.80;;;4.60;99.90;;;4.91;84.23;103752.03;5073444;28;20079;-58
2022/01/18 05:50:59;;;;;;;6.33;5.73;;;4.60;99.90;;;4.99;84.82;103763.91;5073379;28;20143;-58
2022/01/18 05:53:28;;;;;;;8.13;5.80;;;4.70;99.90;;;5.02;84.94;103753.59;5073948;28;20469;-58
2022/01/18 05:55:57;;;;;;;5.90;5.50;;;4.80;99.90;;;5.07;85.63;103754.84;5073221;28;20167;-59
2022/01/18 05:58:25;;;;;;;8.73;6.23;;;4.80;99.90;;;5.11;85.59;103754.22;5073258;28;20079;-59
2022/01/18 06:00:55;;;;;;;16.30;6.23;;;4.90;99.90;;;5.13;85.75;103750.84;5073401;28;20135;-59
2022/01/18 06:03:31;;;;;;;7.93;6.40;;;5.00;99.90;;;5.28;85.75;103754.44;5073958;28;20076;-58
2022/01/18 06:08:46;;;;;;;10.07;5.83;;;5.20;99.90;;;5.34;85.83;103754.84;5071920;28;20451;-59
2022/01/18 06:11:15;;;;;;;13.97;5.97;;;5.20;99.90;;;5.28;85.69;103762.31;5072951;28;20080;-59
2022/01/18 06:13:43;;;;;;;10.03;5.53;;;5.10;99.90;;;5.25;85.64;103762.16;5073056;28;20098;-58
2022/01/18 06:16:12;;;;;;;7.93;5.43;;;5.10;99.90;;;5.16;85.93;103739.66;5073624;28;20127;-58
2022/01/18 06:18:40;;;;;;;12.53;6.30;;;5.10;99.90;;;5.21;86.27;103754.88;5073381;28;20048;-59
2022/01/18 06:21:10;;;;;;;6.70;6.03;;;5.10;99.90;;;5.28;86.37;103756.19;5072768;28;20471;-59
2022/01/18 06:23:39;;;;;;;8.32;7.50;;;5.10;99.90;;;5.22;86.75;103742.69;5072635;28;20044;-58
2022/01/18 06:26:07;;;;;;;12.13;7.40;;;5.10;99.90;;;5.31;86.57;103744.16;5072557;28;20075;-59
2022/01/18 06:28:36;;;;;;;9.20;8.17;;;5.10;99.90;;;5.31;86.70;103745.88;5072559;28;20048;-58
2022/01/18 06:31:04;;;;;;;11.00;9.93;;;5.20;99.90;;;5.27;86.24;103764.84;5071576;28;20469;-58
2022/01/18 06:33:32;;;;;;;13.40;10.27;;;5.10;99.90;;;5.12;85.95;103761.25;5072655;28;20048;-58
2022/01/18 06:36:01;;;;;;;11.47;8.50;;;5.10;99.90;;;5.08;85.69;103761.88;5073189;28;20043;-59
2022/01/18 06:38:31;;;;;;;10.23;9.17;;;4.90;99.90;;;5.01;85.41;103762.31;5073058;28;20102;-58
2022/01/18 06:40:59;;;;;;;9.48;8.52;;;4.80;99.90;;;4.79;85.32;103773.09;5072753;28;20117;-58
2022/01/18 06:43:28;;;;;;;33.43;9.60;;;4.70;99.90;;;4.67;85.40;103766.13;5072216;28;20064;-59
2022/01/18 06:45:56;;;;;;;10.43;9.40;;;4.70;99.90;;;4.70;85.73;103761.13;5072122;28;20155;-59
2022/01/18 06:48:25;;;;;;;23.43;10.17;;;4.60;99.90;;;4.75;86.13;103762.31;5072412;28;20040;-59
2022/01/18 06:50:53;;;;;;;10.07;8.40;;;4.60;99.90;;;4.84;87.14;103768.19;5072058;28;20543;-59
2022/01/18 06:53:22;;;;;;;8.87;7.97;;;4.70;99.90;;;4.95;87.60;103759.28;5072653;28;20044;-58
2022/01/18 06:55:54;;;;;;;6.90;6.20;;;4.80;99.90;;;5.08;88.42;103764.50;5071475;28;20037;-58
2022/01/18 06:58:24;;;;;;;6.20;5.70;;;4.90;99.90;;;5.24;88.73;103769.94;5072440;28;20045;-58
2022/01/18 07:00:53;;;;;;;7.00;6.40;;;5.10;99.90;;;5.30;89.00;103765.06;5072013;28;20056;-58
2022/01/18 07:03:21;;;;;;;5.90;5.30;;;5.10;99.90;;;5.45;89.13;103774.81;5071895;28;20090;-58
2022/01/18 07:05:50;;;;;;;5.53;5.03;;;5.30;99.90;;;5.58;88.92;103768.59;5072407;28;20461;-58
2022/01/18 07:08:18;;;;;;;6.03;5.40;;;5.40;99.90;;;5.67;89.05;103774.41;5071829;28;20121;-58
2022/01/18 07:10:47;;;;;;;6.20;5.60;;;5.50;99.90;;;5.12;88.81;103658.94;5071739;28;20174;-58
2022/01/18 07:13:16;;;;;;;11.67;6.97;;;5.60;99.90;;;5.81;88.74;103778.81;5072010;28;20408;-58
2022/01/18 07:15:45;;;;;;;11.23;6.72;;;5.60;99.90;;;5.90;88.77;103765.38;5071572;28;20105;-59
2022/01/18 07:18:14;;;;;;;28.07;7.07;;;5.70;99.90;;;5.93;88.91;103769.09;5071613;28;20076;-59
2022/01/18 07:20:43;;;;;;;28.23;7.67;;;5.70;99.90;;;5.91;88.84;103772.44;5071554;28;20052;-62
2022/01/18 07:23:13;;;;;;;13.90;5.97;;;5.70;99.90;;;5.92;88.94;103764.63;5072118;28;20157;-59
2022/01/18 07:25:44;;;;;;;6.60;5.45;;;5.70;99.90;;;5.93;89.25;103773.44;5071501;28;20086;-58
2022/01/18 07:28:16;;;;;;;6.07;5.47;;;5.70;99.90;;;5.97;88.95;103768.47;5071773;28;20078;-59
2022/01/18 07:30:46;;;;;;;5.97;5.37;;;5.80;99.90;;;5.97;89.04;103776.34;5071549;28;20101;-59
2022/01/18 07:33:16;;;;;;;6.38;5.55;;;5.80;99.90;;;5.92;89.10;103780.38;5070470;28;20672;-59
2022/01/18 07:35:45;;;;;;;5.65;5.10;;;5.80;99.90;;;5.93;89.41;103784.84;5071712;28;20053;-59
2022/01/18 07:38:17;;;;;;;5.73;5.27;;;5.80;99.90;;;5.95;89.50;103782.31;5071534;28;20051;-59
2022/01/18 07:40:47;;;;;;;11.73;6.13;;;5.80;99.90;;;6.00;89.89;103791.41;5070399;28;20060;-59
2022/01/18 07:43:18;;;;;;;8.80;6.45;;;5.80;99.90;;;6.02;90.13;103790.66;5071788;28;20148;-59
2022/01/18 07:45:49;;;;;;;6.50;5.90;;;5.80;99.90;;;6.07;89.80;103783.97;5069816;28;20045;-59
2022/01/18 07:48:21;;;;;;;7.97;7.18;;;5.90;99.90;;;6.02;89.87;103784.53;5071520;28;20056;-59
2022/01/18 07:50:54;;;;;;;10.93;7.77;;;5.90;99.90;;;5.94;90.34;103783.13;5071420;28;20097;-58
2022/01/18 07:53:23;;;;;;;;;;;5.80;99.90;;;5.96;90.35;103785.03;5071756;28;20398;-58
2022/01/18 07:55:51;;;;;;;24.13;11.40;;;5.80;99.90;;;5.96;90.68;103792.91;5071185;28;20082;-59
2022/01/18 07:58:21;;;;;;;19.08;11.65;;;5.80;99.90;;;6.05;91.10;103790.84;5071292;28;20041;-59
2022/01/18 08:00:50;;;;;;;19.23;10.75;;;5.80;99.90;;;6.11;90.95;103791.22;5071929;28;20040;-59
2022/01/18 08:03:18;;;;;;;30.47;11.63;;;5.90;99.90;;;6.13;91.09;103789.59;5071577;28;20049;-59
2022/01/18 08:05:48;;;;;;;21.83;11.93;;;5.90;99.90;;;6.23;90.88;103791.94;5072711;28;20043;-59
2022/01/18 08:08:17;;;;;;;29.80;12.10;;;6.00;99.90;;;6.24;90.75;103793.78;5075768;28;20447;-59
2022/01/18 08:10:45;;;;;;;20.30;10.87;;;6.10;99.90;;;6.28;90.88;103794.88;5075702;28;20102;-58
2022/01/18 08:13:14;;;;;;;20.90;11.87;;;6.10;99.90;;;6.29;90.57;103787.06;5075404;28;20462;-58
2022/01/18 08:15:56;;;;;;;22.83;12.00;;;6.10;99.90;;;6.38;90.64;103799.84;5075621;28;20401;-58
2022/01/18 08:18:25;;;;;;;21.20;10.53;;;6.20;99.90;;;6.34;90.15;103796.16;5075503;28;20052;-58
2022/01/18 08:20:53;;;;;;;19.07;9.93;;;6.10;99.90;;;6.32;89.99;103805.66;5076240;28;20047;-59
2022/01/18 08:23:21;;;;;;;17.40;10.15;;;6.10;99.90;;;6.35;89.84;103797.94;5075453;28;20506;-59
2022/01/18 08:25:50;;;;;;;15.32;9.32;;;6.10;99.90;;;6.35;89.91;103808.47;5075031;28;20044;-59
2022/01/18 08:28:18;;;;;;;16.20;10.20;;;6.10;99.90;;;6.32;89.72;103813.53;5074832;28;20090;-59
2022/01/18 08:30:48;;;;;;;14.68;10.48;;;6.10;99.90;;;6.30;89.81;103815.19;5075243;28;20071;-59
2022/01/18 08:33:19;;;;;;;23.40;12.27;;;6.10;99.90;;;6.28;90.03;103802.75;5073852;28;20127;-59
2022/01/18 08:35:47;;;;;;;32.05;13.35;;;6.10;99.90;;;6.32;90.06;103804.75;5075059;28;20102;-59
2022/01/18 08:38:15;;;;;;;25.93;14.67;;;6.10;99.90;;;6.31;90.23;103806.47;5075184;28;20131;-60
2022/01/18 08:40:44;;;;;;;28.27;14.52;;;6.10;99.90;;;6.36;90.25;103814.63;5074764;28;20076;-60
2022/01/18 08:43:13;;;;;;;31.02;15.45;;;6.20;99.90;;;6.38;90.41;103818.25;5073342;28;20049;-60
2022/01/18 08:45:41;;;;;;;28.77;14.65;;;6.10;99.90;;;6.40;90.76;103808.75;5074829;28;20064;-60
2022/01/18 08:48:11;;;;;;;24.15;13.98;;;6.20;99.90;;;6.42;90.55;103814.09;5073267;28;20564;-60
2022/01/18 08:50:40;;;;;;;27.95;15.70;;;6.20;99.90;;;6.44;90.76;103813.38;5074793;28;20052;-60
2022/01/18 08:53:09;;;;;;;25.43;13.57;;;6.30;99.90;;;6.49;90.75;103826.78;5073347;28;20080;-60
2022/01/18 08:55:38;;;;;;;31.67;13.15;;;6.30;99.90;;;6.48;90.53;103820.63;5074885;28;20426;-60
2022/01/18 08:58:08;;;;;;;31.67;10.90;;;6.30;99.90;;;6.50;90.77;103823.34;5074231;28;20556;-60
2022/01/18 09:00:36;;;;;;;21.13;10.68;;;6.30;99.90;;;6.54;90.91;103836.78;5074521;28;20409;-60
2022/01/18 09:03:07;;;;;;;25.65;10.98;;;6.40;99.90;;;6.58;90.84;103822.06;5074202;28;20074;-61
2022/01/18 09:05:38;;;;;;;17.27;9.35;;;6.40;99.90;;;6.64;91.14;103819.81;5074530;28;20048;-60
2022/01/18 09:08:08;;;;;;;16.83;7.85;;;6.50;99.90;;;6.62;90.97;103824.97;5074373;28;20149;-60
2022/01/18 09:10:37;;;;;;;12.40;8.07;;;6.50;99.90;;;6.67;91.25;103818.25;5074095;28;20046;-60
2022/01/18 09:13:05;;;;;;;12.25;7.25;;;6.50;99.90;;;6.70;91.40;103818.44;5073891;28;20482;-60
2022/01/18 09:15:34;;;;;;;33.47;8.70;;;6.60;99.90;;;6.71;91.56;103820.25;5074260;28;20393;-60
2022/01/18 09:18:03;;;;;;;9.90;7.55;;;6.50;99.90;;;6.63;91.58;103800.50;5073271;28;20049;-60
2022/01/18 09:20:31;;;;;;;9.25;7.43;;;6.60;99.90;;;6.79;91.66;103812.81;5074438;28;20454;-60
2022/01/18 09:23:02;;;;;;;11.02;7.72;;;6.60;99.90;;;6.76;91.73;103813.53;5074119;28;20032;-60
2022/01/18 09:25:32;;;;;;;;;;;6.60;99.90;;;6.82;91.90;103820.88;5074284;28;20064;-60
2022/01/18 09:28:01;;;;;;;11.30;8.27;;;6.60;99.90;;;6.89;91.87;103816.03;5073684;28;19920;-60
2022/01/18 09:30:32;;;;;;;13.75;9.18;;;6.70;99.90;;;6.95;92.05;103820.78;5073808;28;20044;-60
2022/01/18 09:33:02;;;;;;;;;;;6.70;99.90;;;7.00;91.79;103824.56;5074831;28;20044;-60
2022/01/18 09:35:30;;;;;;;17.17;9.50;;;6.80;99.90;;;6.97;92.19;103820.03;5073797;28;19996;-59
2022/01/18 09:38:00;;;;;;;12.93;8.63;;;6.80;99.90;;;6.97;92.32;103834.91;5074003;28;20044;-59
2022/01/18 09:40:30;;;;;;;19.33;8.55;;;6.80;99.90;;;6.88;92.67;103831.75;5073978;28;20061;-59
2022/01/18 09:43:08;;;;;;;42.25;9.43;;;6.80;99.90;;;6.90;92.83;103840.63;5073669;28;20049;-59
2022/01/18 09:45:37;;;;;;;30.17;11.25;;;6.70;99.90;;;6.86;93.02;103831.66;5073647;28;20072;-59
2022/01/18 09:48:06;;;;;;;40.88;11.25;;;6.70;99.90;;;6.91;93.07;103845.09;5073415;28;20055;-59
2022/01/18 09:50:37;;;;;;;22.83;9.82;;;6.70;99.90;;;6.78;93.15;103832.94;5073725;28;20459;-59
2022/01/18 09:53:11;;;;;;;21.45;10.90;;;6.70;99.90;;;6.88;93.63;103834.38;5073881;28;20437;-59
2022/01/18 09:55:41;;;;;;;25.75;11.32;;;6.70;99.90;;;6.85;93.76;103834.22;5072715;28;20063;-60
2022/01/18 09:58:11;;;;;;;34.75;13.10;;;6.70;99.90;;;6.89;93.98;103836.22;5072304;28;20044;-60
2022/01/18 10:00:41;;;;;;;22.13;13.40;;;6.70;99.90;;;6.90;94.33;103838.00;5073502;28;20049;-60
2022/01/18 10:03:30;;;;;;;27.17;14.52;;;6.70;99.90;;;6.97;94.41;103835.81;5073528;28;20386;-61
2022/01/18 10:05:59;;;;;;;26.70;15.88;;;6.80;99.90;;;6.97;94.33;103845.44;5073692;28;20339;-60
2022/01/18 10:08:32;;;;;;;48.85;14.77;;;6.80;99.90;;;6.98;94.76;103840.28;5073018;28;20049;-60
2022/01/18 10:11:10;;;;;;;24.67;15.82;;;6.90;99.90;;;6.96;94.95;103836.66;5073134;28;20554;-60
2022/01/18 10:13:39;;;;;;;45.45;14.45;;;6.90;99.90;;;7.00;95.01;103837.72;5088612;28;20057;-60
2022/01/18 10:16:10;;;;;;;38.70;15.32;;;6.90;99.90;;;7.04;94.79;103835.38;5072762;28;20405;-60
2022/01/18 10:18:47;;;;;;;44.13;13.80;;;6.90;99.90;;;6.88;94.90;103835.28;5072866;28;20056;-60
2022/01/18 10:21:28;;;;;;;31.27;14.93;;;6.80;99.90;;;6.96;95.40;103830.47;5072807;28;20413;-60
2022/01/18 10:24:16;;;;;;;69.05;16.15;;;6.80;99.90;;;6.93;95.11;103839.09;5073122;28;20466;-60
2022/01/18 10:26:47;;;;;;;28.20;15.55;;;6.80;99.90;;;7.02;95.35;103836.09;5072862;28;20090;-60
2022/01/18 10:29:16;;;;;;;;;;;6.90;99.90;;;6.98;95.33;103831.47;5072014;28;20045;-60
2022/01/18 10:31:57;;;;;;;38.85;16.83;;;6.90;99.90;;;6.95;95.45;103837.44;5072534;28;19921;-60
2022/01/18 10:34:41;;;;;;;;;;;6.80;99.90;;;7.03;95.33;103848.41;5073011;28;20067;-60
2022/01/18 10:37:12;;;;;;;34.47;16.70;;;6.90;99.90;;;6.94;95.41;103843.53;5072827;28;19920;-61
2022/01/18 10:39:48;;;;;;;37.20;16.35;;;6.80;99.90;;;6.91;95.62;103835.47;5072563;28;20491;-60
2022/01/18 10:42:23;;;;;;;28.30;16.65;;;6.80;99.90;;;6.97;96.10;103832.28;5072421;28;20370;-60
2022/01/18 10:45:04;;;;;;;37.38;16.00;;;6.80;99.90;;;6.97;96.25;103830.56;5071208;28;20494;-60
2022/01/18 10:47:33;;;;;;;32.33;15.82;;;6.90;99.90;;;7.09;96.33;103828.63;5072527;28;20429;-60
2022/01/18 10:50:09;;;;;;;32.15;17.13;;;6.90;99.90;;;7.11;96.35;103834.91;5070999;28;20549;-60
2022/01/18 10:52:38;;;;;;;51.55;23.20;;;6.90;99.90;;;6.96;96.16;103798.91;5072239;28;20486;-60
2022/01/18 10:55:17;;;;;;;52.28;24.27;;;7.00;99.90;;;7.20;96.11;103831.91;5072398;28;20467;-60
2022/01/18 10:57:47;;;;;;;44.60;24.30;;;7.00;99.90;;;7.17;96.44;103832.63;5088009;28;20040;-60
2022/01/18 11:00:21;;;;;;;59.85;29.65;;;7.00;99.90;;;7.21;96.16;103829.34;5071125;28;20090;-60
2022/01/18 11:02:52;;;;;;;84.85;31.83;;;7.00;99.90;;;7.10;96.22;103826.91;5072132;28;20045;-60
2022/01/18 11:05:24;;;;;;;73.72;31.50;;;7.00;99.90;;;6.99;96.26;103828.91;5072031;28;20053;-60
2022/01/18 11:07:55;;;;;;;73.95;31.95;;;6.90;99.90;;;6.98;96.06;103829.75;5072381;28;20474;-60
2022/01/18 11:10:26;;;;;;;;;;;6.80;99.90;;;6.95;96.14;103840.09;5072401;28;20048;-60
2022/01/18 11:13:02;;;;;;;60.58;31.80;;;6.80;99.90;;;7.02;96.24;103823.84;5071749;28;19928;-60
2022/01/18 11:15:32;;;;;;;105.95;32.55;;;6.80;99.90;;;6.86;96.38;103809.72;5072328;28;20077;-60
2022/01/18 11:18:03;;;;;;;69.38;33.78;;;6.80;99.90;;;6.97;96.89;103821.75;5072242;28;20036;-60
2022/01/18 11:20:34;;;;;;;104.70;33.10;;;6.80;99.90;;;7.07;96.91;103821.47;5072175;28;20056;-61
2022/01/18 11:23:06;;;;;;;58.67;28.23;;;6.90;99.90;;;6.93;97.54;103802.25;5071753;28;20094;-60
2022/01/18 11:25:38;;;;;;;65.25;27.73;;;6.90;99.90;;;7.12;97.90;103817.38;5071840;28;20045;-60